NKS390 KRDU-KFLL
Flight info
| Callsign | NKS390 |
|---|---|
| Flight time | 2h 23m |
| Altitude | 36000 |
| Route | ROZBO5 ROZBO DCT SLITT DCT SMPRR DCT ELMSZ Q97 PRMUS CUUDA3 |
| Aircraft | A321/M-SDE3FGHIRWY/LB1 |
Departure
| Time | 2026-05-03 21:34 |
|---|---|
| Airport | Raleigh-Durham International Airport (KRDU) |
Arrival
| Time | 2026-05-03 23:57 |
|---|---|
| Airport | Fort Lauderdale Hollywood International Airport (KFLL) |
| Time | Latitude | Longitude | Altitude | Speed | Heading |
|---|---|---|---|---|---|
| 2026-05-03 20:51 | 35.87334 | -78.79011 | 435 ft | 0 kts | 315° |
| 2026-05-03 21:25 | 35.87330 | -78.79006 | 435 ft | 3 kts | 315° |
| 2026-05-03 21:25 | 35.87317 | -78.78990 | 429 ft | 3 kts | 315° |
| 2026-05-03 21:25 | 35.87304 | -78.78973 | 432 ft | 3 kts | 315° |
| 2026-05-03 21:25 | 35.87290 | -78.78958 | 429 ft | 3 kts | 336° |
| 2026-05-03 21:26 | 35.87273 | -78.78949 | 429 ft | 3 kts | 4° |
| 2026-05-03 21:26 | 35.87255 | -78.78952 | 435 ft | 3 kts | 13° |
| 2026-05-03 21:26 | 35.87238 | -78.78958 | 423 ft | 3 kts | 30° |
| 2026-05-03 21:26 | 35.87236 | -78.78959 | 430 ft | 0 kts | 30° |
| 2026-05-03 21:28 | 35.87238 | -78.78958 | 433 ft | 2 kts | 30° |
| 2026-05-03 21:29 | 35.87273 | -78.78926 | 435 ft | 11 kts | 42° |
| 2026-05-03 21:29 | 35.87339 | -78.78846 | 431 ft | 14 kts | 44° |
| 2026-05-03 21:29 | 35.87414 | -78.78757 | 430 ft | 15 kts | 45° |
| 2026-05-03 21:29 | 35.87493 | -78.78657 | 432 ft | 17 kts | 45° |
| 2026-05-03 21:30 | 35.87577 | -78.78552 | 431 ft | 18 kts | 45° |
| 2026-05-03 21:30 | 35.87667 | -78.78441 | 429 ft | 19 kts | 45° |
| 2026-05-03 21:30 | 35.87764 | -78.78321 | 432 ft | 20 kts | 45° |
| 2026-05-03 21:30 | 35.87866 | -78.78196 | 424 ft | 21 kts | 45° |
| 2026-05-03 21:31 | 35.87964 | -78.78074 | 429 ft | 15 kts | 49° |
| 2026-05-03 21:31 | 35.87976 | -78.78050 | 428 ft | 0 kts | 69° |
| 2026-05-03 21:31 | 35.87978 | -78.78044 | 431 ft | 1 kts | 72° |
| 2026-05-03 21:31 | 35.87978 | -78.78032 | 423 ft | 2 kts | 94° |
| 2026-05-03 21:32 | 35.87967 | -78.78019 | 434 ft | 4 kts | 135° |
| 2026-05-03 21:32 | 35.87934 | -78.77980 | 438 ft | 9 kts | 135° |
| 2026-05-03 21:32 | 35.87882 | -78.77982 | 434 ft | 9 kts | 219° |
| 2026-05-03 21:32 | 35.87861 | -78.78009 | 430 ft | 0 kts | 226° |
| 2026-05-03 21:33 | 35.87860 | -78.78010 | 437 ft | 1 kts | 226° |
| 2026-05-03 21:33 | 35.87838 | -78.78038 | 426 ft | 20 kts | 226° |
| 2026-05-03 21:33 | 35.87546 | -78.78401 | 423 ft | 97 kts | 225° |
| 2026-05-03 21:34 | 35.86914 | -78.79185 | 434 ft | 156 kts | 226° |
| 2026-05-03 21:34 | 35.86122 | -78.80156 | 1026 ft | 161 kts | 225° |
| 2026-05-03 21:34 | 35.85329 | -78.81117 | 1746 ft | 160 kts | 226° |
| 2026-05-03 21:34 | 35.84509 | -78.82128 | 2118 ft | 175 kts | 226° |
| 2026-05-03 21:35 | 35.83550 | -78.83175 | 2384 ft | 197 kts | 217° |
| 2026-05-03 21:35 | 35.82286 | -78.84047 | 2589 ft | 218 kts | 204° |
| 2026-05-03 21:35 | 35.80756 | -78.84585 | 2759 ft | 247 kts | 189° |
| 2026-05-03 21:35 | 35.78974 | -78.84618 | 3259 ft | 264 kts | 173° |
| 2026-05-03 21:36 | 35.77182 | -78.84028 | 4065 ft | 270 kts | 157° |
| 2026-05-03 21:36 | 35.75562 | -78.82826 | 4877 ft | 274 kts | 140° |
| 2026-05-03 21:36 | 35.74266 | -78.81090 | 5678 ft | 277 kts | 126° |
| 2026-05-03 21:36 | 35.72992 | -78.79291 | 6488 ft | 280 kts | 138° |
| 2026-05-03 21:37 | 35.71398 | -78.77898 | 7280 ft | 283 kts | 153° |
| 2026-05-03 21:37 | 35.69565 | -78.77033 | 8024 ft | 285 kts | 165° |
| 2026-05-03 21:37 | 35.67634 | -78.76360 | 8802 ft | 289 kts | 165° |
| 2026-05-03 21:37 | 35.65688 | -78.75677 | 9562 ft | 293 kts | 165° |
| 2026-05-03 21:38 | 35.63727 | -78.74986 | 10228 ft | 301 kts | 165° |
| 2026-05-03 21:38 | 35.61632 | -78.74250 | 10451 ft | 323 kts | 165° |
| 2026-05-03 21:38 | 35.59384 | -78.73458 | 10654 ft | 345 kts | 165° |
| 2026-05-03 21:38 | 35.57042 | -78.72630 | 11182 ft | 354 kts | 165° |
| 2026-05-03 21:39 | 35.54685 | -78.71797 | 11830 ft | 359 kts | 166° |
| 2026-05-03 21:39 | 35.52263 | -78.70945 | 12495 ft | 363 kts | 167° |
| 2026-05-03 21:39 | 35.49770 | -78.70411 | 13140 ft | 365 kts | 176° |
| 2026-05-03 21:39 | 35.47215 | -78.70056 | 13794 ft | 368 kts | 176° |
| 2026-05-03 21:40 | 35.44675 | -78.69697 | 14435 ft | 371 kts | 176° |
| 2026-05-03 21:40 | 35.42088 | -78.69325 | 15070 ft | 375 kts | 176° |
| 2026-05-03 21:40 | 35.39498 | -78.68953 | 15695 ft | 379 kts | 176° |
| 2026-05-03 21:40 | 35.36867 | -78.68577 | 16298 ft | 382 kts | 176° |
| 2026-05-03 21:41 | 35.34212 | -78.68196 | 16904 ft | 386 kts | 176° |
| 2026-05-03 21:41 | 35.31521 | -78.67808 | 17489 ft | 389 kts | 176° |
| 2026-05-03 21:41 | 35.28843 | -78.67421 | 18067 ft | 393 kts | 176° |
| 2026-05-03 21:41 | 35.26106 | -78.67028 | 18637 ft | 396 kts | 177° |
| 2026-05-03 21:42 | 35.23344 | -78.66633 | 19203 ft | 399 kts | 177° |
| 2026-05-03 21:42 | 35.20567 | -78.66236 | 19758 ft | 402 kts | 177° |
| 2026-05-03 21:42 | 35.17812 | -78.65839 | 20297 ft | 406 kts | 177° |
| 2026-05-03 21:42 | 35.14998 | -78.65438 | 20834 ft | 409 kts | 177° |
| 2026-05-03 21:43 | 35.12136 | -78.65037 | 21361 ft | 412 kts | 177° |
| 2026-05-03 21:43 | 35.09311 | -78.64638 | 21856 ft | 415 kts | 177° |
| 2026-05-03 21:43 | 35.06419 | -78.64229 | 22352 ft | 418 kts | 178° |
| 2026-05-03 21:43 | 35.03515 | -78.63817 | 22823 ft | 421 kts | 178° |
| 2026-05-03 21:44 | 35.00630 | -78.63408 | 23257 ft | 423 kts | 178° |
| 2026-05-03 21:44 | 34.97688 | -78.62991 | 23713 ft | 426 kts | 178° |
| 2026-05-03 21:44 | 34.94721 | -78.62782 | 24137 ft | 424 kts | 186° |
| 2026-05-03 21:44 | 34.91767 | -78.62985 | 24561 ft | 425 kts | 188° |
| 2026-05-03 21:45 | 34.88840 | -78.63212 | 24983 ft | 427 kts | 188° |
| 2026-05-03 21:45 | 34.85857 | -78.63441 | 25398 ft | 429 kts | 188° |
| 2026-05-03 21:45 | 34.82850 | -78.63669 | 25819 ft | 431 kts | 188° |
| 2026-05-03 21:45 | 34.79884 | -78.63893 | 26219 ft | 432 kts | 188° |
| 2026-05-03 21:46 | 34.76854 | -78.64119 | 26614 ft | 434 kts | 188° |
| 2026-05-03 21:46 | 34.73822 | -78.64347 | 26988 ft | 436 kts | 189° |
| 2026-05-03 21:46 | 34.70829 | -78.64876 | 27343 ft | 432 kts | 198° |
| 2026-05-03 21:46 | 34.68007 | -78.65958 | 27697 ft | 428 kts | 207° |
| 2026-05-03 21:47 | 34.65347 | -78.67565 | 28061 ft | 424 kts | 216° |
| 2026-05-03 21:47 | 34.62867 | -78.69503 | 28410 ft | 425 kts | 217° |
| 2026-05-03 21:47 | 34.60380 | -78.71464 | 28758 ft | 426 kts | 217° |
| 2026-05-03 21:47 | 34.57913 | -78.73409 | 29085 ft | 427 kts | 217° |
| 2026-05-03 21:48 | 34.55403 | -78.75385 | 29410 ft | 429 kts | 217° |
| 2026-05-03 21:48 | 34.52887 | -78.77359 | 29731 ft | 431 kts | 217° |
| 2026-05-03 21:48 | 34.50355 | -78.79343 | 30066 ft | 432 kts | 217° |
| 2026-05-03 21:48 | 34.47859 | -78.81297 | 30387 ft | 434 kts | 217° |
| 2026-05-03 21:49 | 34.45307 | -78.83295 | 30684 ft | 436 kts | 217° |
| 2026-05-03 21:49 | 34.42657 | -78.85110 | 31083 ft | 438 kts | 211° |
| 2026-05-03 21:49 | 34.39958 | -78.86729 | 31500 ft | 436 kts | 211° |
| 2026-05-03 21:49 | 34.37234 | -78.88367 | 31901 ft | 434 kts | 211° |
| 2026-05-03 21:50 | 34.34525 | -78.89997 | 32296 ft | 433 kts | 211° |
| 2026-05-03 21:50 | 34.31834 | -78.91620 | 32683 ft | 431 kts | 211° |
| 2026-05-03 21:50 | 34.29181 | -78.93222 | 33055 ft | 430 kts | 212° |
| 2026-05-03 21:50 | 34.26507 | -78.94837 | 33434 ft | 428 kts | 212° |
| 2026-05-03 21:51 | 34.23825 | -78.96452 | 33795 ft | 427 kts | 212° |
| 2026-05-03 21:51 | 34.21156 | -78.98058 | 34147 ft | 426 kts | 212° |
| 2026-05-03 21:51 | 34.18524 | -78.99641 | 34487 ft | 425 kts | 212° |
| 2026-05-03 21:51 | 34.15874 | -79.01232 | 34824 ft | 424 kts | 212° |
| 2026-05-03 21:52 | 34.13260 | -79.02800 | 35143 ft | 423 kts | 212° |
| 2026-05-03 21:52 | 34.10616 | -79.04383 | 35463 ft | 422 kts | 212° |
| 2026-05-03 21:52 | 34.07984 | -79.05958 | 35788 ft | 421 kts | 212° |
| 2026-05-03 21:52 | 34.05381 | -79.07519 | 36057 ft | 421 kts | 212° |
| 2026-05-03 21:53 | 34.00150 | -79.10651 | 36113 ft | 415 kts | 212° |
| 2026-05-03 21:53 | 33.95011 | -79.13723 | 36115 ft | 412 kts | 212° |
| 2026-05-03 21:54 | 33.90726 | -79.16279 | 36130 ft | 411 kts | 212° |
| 2026-05-03 21:54 | 33.85600 | -79.19331 | 36127 ft | 411 kts | 212° |
| 2026-05-03 21:55 | 33.80478 | -79.22378 | 36126 ft | 411 kts | 212° |
| 2026-05-03 21:55 | 33.75329 | -79.25441 | 36130 ft | 411 kts | 212° |
| 2026-05-03 21:56 | 33.70223 | -79.28477 | 36131 ft | 412 kts | 212° |
| 2026-05-03 21:56 | 33.65331 | -79.31977 | 36146 ft | 407 kts | 220° |
| 2026-05-03 21:57 | 33.60730 | -79.35894 | 36147 ft | 407 kts | 220° |
| 2026-05-03 21:57 | 33.56092 | -79.39828 | 36149 ft | 407 kts | 220° |
| 2026-05-03 21:58 | 33.51485 | -79.43725 | 36151 ft | 407 kts | 220° |
| 2026-05-03 21:58 | 33.46858 | -79.47655 | 36151 ft | 406 kts | 220° |
| 2026-05-03 21:59 | 33.42267 | -79.51546 | 36146 ft | 406 kts | 219° |
| 2026-05-03 21:59 | 33.37635 | -79.55455 | 36146 ft | 406 kts | 219° |
| 2026-05-03 22:00 | 33.33020 | -79.59344 | 36150 ft | 407 kts | 219° |
| 2026-05-03 22:00 | 33.28377 | -79.63249 | 36151 ft | 407 kts | 219° |
| 2026-05-03 22:01 | 33.23765 | -79.67123 | 36151 ft | 407 kts | 219° |
| 2026-05-03 22:01 | 33.19144 | -79.71003 | 36152 ft | 407 kts | 219° |
| 2026-05-03 22:02 | 33.14525 | -79.74883 | 36151 ft | 406 kts | 219° |
| 2026-05-03 22:02 | 33.09907 | -79.78756 | 36153 ft | 406 kts | 219° |
| 2026-05-03 22:03 | 33.05267 | -79.82642 | 36153 ft | 406 kts | 219° |
| 2026-05-03 22:03 | 33.00643 | -79.86509 | 36131 ft | 412 kts | 219° |
| 2026-05-03 22:04 | 32.95914 | -79.90466 | 36132 ft | 417 kts | 219° |
| 2026-05-03 22:04 | 32.91145 | -79.94437 | 36126 ft | 418 kts | 219° |
| 2026-05-03 22:05 | 32.86369 | -79.98403 | 36132 ft | 418 kts | 219° |
| 2026-05-03 22:05 | 32.81600 | -80.02356 | 36125 ft | 418 kts | 219° |
| 2026-05-03 22:06 | 32.76839 | -80.06305 | 36131 ft | 418 kts | 219° |
| 2026-05-03 22:06 | 32.72071 | -80.10256 | 36144 ft | 419 kts | 219° |
| 2026-05-03 22:07 | 32.67297 | -80.14210 | 36145 ft | 419 kts | 219° |
| 2026-05-03 22:07 | 32.62511 | -80.18164 | 36148 ft | 419 kts | 219° |
| 2026-05-03 22:08 | 32.57736 | -80.22105 | 36149 ft | 419 kts | 219° |
| 2026-05-03 22:08 | 32.52951 | -80.26059 | 36150 ft | 419 kts | 219° |
| 2026-05-03 22:09 | 32.47856 | -80.29495 | 36153 ft | 422 kts | 213° |
| 2026-05-03 22:10 | 32.40103 | -80.34389 | 36160 ft | 422 kts | 213° |
| 2026-05-03 22:10 | 32.34949 | -80.37640 | 36162 ft | 421 kts | 213° |
| 2026-05-03 22:11 | 32.29768 | -80.40909 | 36164 ft | 422 kts | 213° |
| 2026-05-03 22:11 | 32.24597 | -80.44177 | 36165 ft | 422 kts | 213° |
| 2026-05-03 22:12 | 32.19410 | -80.47445 | 36165 ft | 422 kts | 213° |
| 2026-05-03 22:12 | 32.14227 | -80.50700 | 36166 ft | 422 kts | 213° |
| 2026-05-03 22:13 | 32.09064 | -80.53948 | 36158 ft | 422 kts | 213° |
| 2026-05-03 22:13 | 32.03860 | -80.57217 | 36157 ft | 422 kts | 213° |
| 2026-05-03 22:14 | 31.98695 | -80.60443 | 36156 ft | 422 kts | 213° |
| 2026-05-03 22:14 | 31.93504 | -80.63691 | 36161 ft | 421 kts | 213° |
| 2026-05-03 22:15 | 31.88318 | -80.66932 | 36160 ft | 421 kts | 212° |
| 2026-05-03 22:15 | 31.83160 | -80.70149 | 36161 ft | 421 kts | 212° |
| 2026-05-03 22:16 | 31.77959 | -80.73388 | 36158 ft | 421 kts | 212° |
| 2026-05-03 22:16 | 31.72787 | -80.76618 | 36154 ft | 422 kts | 212° |
| 2026-05-03 22:17 | 31.67578 | -80.79858 | 36149 ft | 422 kts | 212° |
| 2026-05-03 22:17 | 31.62417 | -80.83053 | 36128 ft | 422 kts | 212° |
| 2026-05-03 22:18 | 31.57201 | -80.86281 | 36143 ft | 422 kts | 212° |
| 2026-05-03 22:18 | 31.52003 | -80.89508 | 36144 ft | 422 kts | 212° |
| 2026-05-03 22:19 | 31.46830 | -80.92707 | 36137 ft | 423 kts | 212° |
| 2026-05-03 22:19 | 31.41610 | -80.95923 | 36131 ft | 422 kts | 212° |
| 2026-05-03 22:20 | 31.36414 | -80.99128 | 36139 ft | 423 kts | 212° |
| 2026-05-03 22:20 | 31.31221 | -81.02329 | 36135 ft | 423 kts | 212° |
| 2026-05-03 22:21 | 31.25909 | -81.05294 | 36131 ft | 428 kts | 202° |
| 2026-05-03 22:21 | 31.19900 | -81.06231 | 36140 ft | 442 kts | 187° |
| 2026-05-03 22:22 | 31.13768 | -81.06340 | 36143 ft | 442 kts | 187° |
| 2026-05-03 22:22 | 31.07630 | -81.06472 | 36145 ft | 443 kts | 187° |
| 2026-05-03 22:23 | 31.01482 | -81.06602 | 36147 ft | 443 kts | 187° |
| 2026-05-03 22:23 | 30.95291 | -81.06729 | 36148 ft | 444 kts | 187° |
| 2026-05-03 22:24 | 30.89112 | -81.06856 | 36154 ft | 444 kts | 187° |
| 2026-05-03 22:24 | 30.82945 | -81.06984 | 36156 ft | 443 kts | 187° |
| 2026-05-03 22:25 | 30.76788 | -81.07115 | 36158 ft | 444 kts | 187° |
| 2026-05-03 22:25 | 30.70612 | -81.07247 | 36157 ft | 443 kts | 187° |
| 2026-05-03 22:26 | 30.64479 | -81.07368 | 36157 ft | 444 kts | 187° |
| 2026-05-03 22:26 | 30.58292 | -81.07564 | 36158 ft | 442 kts | 189° |
| 2026-05-03 22:27 | 30.52175 | -81.07968 | 36160 ft | 442 kts | 190° |
| 2026-05-03 22:27 | 30.46027 | -81.08407 | 36160 ft | 442 kts | 189° |
| 2026-05-03 22:28 | 30.39893 | -81.08790 | 36159 ft | 442 kts | 189° |
| 2026-05-03 22:28 | 30.33731 | -81.09145 | 36159 ft | 442 kts | 189° |
| 2026-05-03 22:29 | 30.27569 | -81.09508 | 36159 ft | 442 kts | 189° |
| 2026-05-03 22:29 | 30.21433 | -81.09880 | 36160 ft | 442 kts | 189° |
| 2026-05-03 22:30 | 30.15311 | -81.10250 | 36161 ft | 442 kts | 189° |
| 2026-05-03 22:30 | 30.09141 | -81.10618 | 36160 ft | 442 kts | 189° |
| 2026-05-03 22:31 | 30.02981 | -81.10986 | 36160 ft | 443 kts | 189° |
| 2026-05-03 22:31 | 29.96842 | -81.11346 | 36161 ft | 443 kts | 189° |
| 2026-05-03 22:32 | 29.90708 | -81.11707 | 36160 ft | 443 kts | 189° |
| 2026-05-03 22:32 | 29.84530 | -81.12020 | 36156 ft | 446 kts | 184° |
| 2026-05-03 22:33 | 29.78372 | -81.10562 | 36152 ft | 465 kts | 164° |
| 2026-05-03 22:33 | 29.72387 | -81.07617 | 36148 ft | 467 kts | 163° |
| 2026-05-03 22:34 | 29.66445 | -81.04695 | 36149 ft | 467 kts | 163° |
| 2026-05-03 22:34 | 29.60442 | -81.01756 | 36147 ft | 467 kts | 163° |
| 2026-05-03 22:35 | 29.54495 | -80.98852 | 36130 ft | 467 kts | 163° |
| 2026-05-03 22:35 | 29.48486 | -80.95927 | 36144 ft | 467 kts | 163° |
| 2026-05-03 22:36 | 29.42517 | -80.93020 | 36138 ft | 467 kts | 163° |
| 2026-05-03 22:36 | 29.36525 | -80.90092 | 36129 ft | 468 kts | 163° |
| 2026-05-03 22:37 | 29.30565 | -80.87190 | 36128 ft | 468 kts | 163° |
| 2026-05-03 22:37 | 29.24558 | -80.84279 | 36138 ft | 468 kts | 163° |
| 2026-05-03 22:38 | 29.18580 | -80.81384 | 36127 ft | 468 kts | 163° |
| 2026-05-03 22:38 | 29.12563 | -80.78468 | 36127 ft | 468 kts | 163° |
| 2026-05-03 22:39 | 29.06560 | -80.75560 | 36121 ft | 468 kts | 163° |
| 2026-05-03 22:39 | 29.00585 | -80.72670 | 36126 ft | 468 kts | 163° |
| 2026-05-03 22:40 | 28.94562 | -80.69786 | 36121 ft | 468 kts | 164° |
| 2026-05-03 22:40 | 28.88547 | -80.67081 | 36111 ft | 467 kts | 165° |
| 2026-05-03 22:41 | 28.82477 | -80.64425 | 36111 ft | 466 kts | 165° |
| 2026-05-03 22:41 | 28.76446 | -80.61763 | 36103 ft | 467 kts | 165° |
| 2026-05-03 22:42 | 28.70377 | -80.59054 | 36097 ft | 467 kts | 165° |
| 2026-05-03 22:42 | 28.64341 | -80.56349 | 36093 ft | 467 kts | 165° |
| 2026-05-03 22:43 | 28.58261 | -80.53637 | 36089 ft | 467 kts | 165° |
| 2026-05-03 22:43 | 28.52234 | -80.50959 | 36088 ft | 467 kts | 165° |
| 2026-05-03 22:44 | 28.47180 | -80.48720 | 36082 ft | 467 kts | 165° |
| 2026-05-03 22:44 | 28.40111 | -80.45584 | 36073 ft | 468 kts | 165° |
| 2026-05-03 22:45 | 28.35060 | -80.43351 | 36070 ft | 468 kts | 165° |
| 2026-05-03 22:45 | 28.28990 | -80.40672 | 36067 ft | 467 kts | 165° |
| 2026-05-03 22:46 | 28.22953 | -80.38003 | 36069 ft | 468 kts | 165° |
| 2026-05-03 22:46 | 28.16875 | -80.35314 | 36064 ft | 468 kts | 165° |
| 2026-05-03 22:47 | 28.10823 | -80.32644 | 36068 ft | 468 kts | 165° |
| 2026-05-03 22:47 | 28.04711 | -80.30069 | 36072 ft | 466 kts | 167° |
| 2026-05-03 22:48 | 27.98592 | -80.27728 | 36075 ft | 465 kts | 168° |
| 2026-05-03 22:48 | 27.92461 | -80.25407 | 36077 ft | 466 kts | 167° |
| 2026-05-03 22:49 | 27.86310 | -80.23017 | 36082 ft | 466 kts | 167° |
| 2026-05-03 22:49 | 27.80198 | -80.20621 | 36084 ft | 466 kts | 167° |
| 2026-05-03 22:50 | 27.74059 | -80.18225 | 36084 ft | 466 kts | 167° |
| 2026-05-03 22:50 | 27.67911 | -80.15838 | 36090 ft | 466 kts | 167° |
| 2026-05-03 22:51 | 27.61788 | -80.13462 | 36093 ft | 466 kts | 167° |
| 2026-05-03 22:51 | 27.55690 | -80.11003 | 36092 ft | 468 kts | 166° |
| 2026-05-03 22:52 | 27.49574 | -80.08438 | 36091 ft | 468 kts | 166° |
| 2026-05-03 22:52 | 27.43488 | -80.05894 | 36087 ft | 468 kts | 166° |
| 2026-05-03 22:53 | 27.37360 | -80.03411 | 36086 ft | 467 kts | 168° |
| 2026-05-03 22:53 | 27.31132 | -80.01380 | 36088 ft | 462 kts | 171° |
| 2026-05-03 22:54 | 27.24891 | -79.99622 | 36088 ft | 463 kts | 171° |
| 2026-05-03 22:54 | 27.18697 | -79.97583 | 36085 ft | 466 kts | 168° |
| 2026-05-03 22:55 | 27.12535 | -79.95255 | 36084 ft | 467 kts | 167° |
| 2026-05-03 22:55 | 27.06396 | -79.92942 | 36079 ft | 467 kts | 167° |
| 2026-05-03 22:56 | 27.00250 | -79.90534 | 36076 ft | 468 kts | 165° |
| 2026-05-03 22:56 | 26.94133 | -79.88023 | 36076 ft | 469 kts | 165° |
| 2026-05-03 22:56 | 26.91058 | -79.86755 | 35697 ft | 470 kts | 165° |
| 2026-05-03 22:57 | 26.88037 | -79.85520 | 34449 ft | 466 kts | 165° |
| 2026-05-03 22:57 | 26.84988 | -79.84286 | 33319 ft | 459 kts | 165° |
| 2026-05-03 22:57 | 26.82019 | -79.83092 | 32312 ft | 450 kts | 165° |
| 2026-05-03 22:57 | 26.79091 | -79.81914 | 31242 ft | 441 kts | 165° |
| 2026-05-03 22:58 | 26.76224 | -79.80761 | 30271 ft | 432 kts | 165° |
| 2026-05-03 22:58 | 26.73505 | -79.79676 | 29887 ft | 408 kts | 167° |
| 2026-05-03 22:58 | 26.70772 | -79.79030 | 28650 ft | 399 kts | 182° |
| 2026-05-03 22:58 | 26.68039 | -79.79252 | 27595 ft | 387 kts | 197° |
| 2026-05-03 22:59 | 26.65493 | -79.80121 | 26391 ft | 382 kts | 203° |
| 2026-05-03 22:59 | 26.63011 | -79.81121 | 25196 ft | 383 kts | 203° |
| 2026-05-03 22:59 | 26.60530 | -79.82132 | 24536 ft | 369 kts | 203° |
| 2026-05-03 22:59 | 26.58178 | -79.83091 | 24167 ft | 349 kts | 203° |
| 2026-05-03 23:00 | 26.55939 | -79.84004 | 23555 ft | 337 kts | 204° |
| 2026-05-03 23:00 | 26.53682 | -79.84646 | 22792 ft | 335 kts | 188° |
| 2026-05-03 23:00 | 26.51396 | -79.84464 | 22011 ft | 337 kts | 168° |
| 2026-05-03 23:00 | 26.49259 | -79.83379 | 21207 ft | 340 kts | 147° |
| 2026-05-03 23:01 | 26.47601 | -79.81471 | 20404 ft | 343 kts | 124° |
| 2026-05-03 23:01 | 26.46678 | -79.79018 | 19612 ft | 344 kts | 102° |
| 2026-05-03 23:01 | 26.46601 | -79.76394 | 18842 ft | 342 kts | 80° |
| 2026-05-03 23:01 | 26.47353 | -79.73901 | 18066 ft | 336 kts | 58° |
| 2026-05-03 23:02 | 26.48783 | -79.71923 | 17301 ft | 329 kts | 37° |
| 2026-05-03 23:02 | 26.50698 | -79.70602 | 16524 ft | 322 kts | 22° |
| 2026-05-03 23:02 | 26.52744 | -79.69608 | 16137 ft | 319 kts | 19° |
| 2026-05-03 23:02 | 26.54836 | -79.68698 | 16006 ft | 321 kts | 18° |
| 2026-05-03 23:03 | 26.56919 | -79.67828 | 16021 ft | 322 kts | 17° |
| 2026-05-03 23:03 | 26.59030 | -79.66949 | 16026 ft | 322 kts | 18° |
| 2026-05-03 23:03 | 26.61136 | -79.66059 | 16027 ft | 322 kts | 18° |
| 2026-05-03 23:03 | 26.63213 | -79.65167 | 16027 ft | 322 kts | 18° |
| 2026-05-03 23:04 | 26.65318 | -79.64253 | 16026 ft | 323 kts | 19° |
| 2026-05-03 23:04 | 26.67426 | -79.63475 | 16023 ft | 319 kts | 6° |
| 2026-05-03 23:04 | 26.69616 | -79.63426 | 16026 ft | 313 kts | 347° |
| 2026-05-03 23:04 | 26.71663 | -79.64177 | 16027 ft | 306 kts | 327° |
| 2026-05-03 23:05 | 26.73334 | -79.65604 | 16027 ft | 301 kts | 309° |
| 2026-05-03 23:05 | 26.74496 | -79.67522 | 16032 ft | 296 kts | 291° |
| 2026-05-03 23:05 | 26.75065 | -79.69700 | 16028 ft | 293 kts | 275° |
| 2026-05-03 23:05 | 26.75009 | -79.71974 | 16030 ft | 292 kts | 258° |
| 2026-05-03 23:06 | 26.74336 | -79.74111 | 16026 ft | 292 kts | 241° |
| 2026-05-03 23:06 | 26.73125 | -79.75898 | 16029 ft | 294 kts | 224° |
| 2026-05-03 23:06 | 26.71440 | -79.77216 | 16030 ft | 297 kts | 209° |
| 2026-05-03 23:06 | 26.69548 | -79.78192 | 16027 ft | 299 kts | 205° |
| 2026-05-03 23:07 | 26.67621 | -79.79047 | 16027 ft | 299 kts | 203° |
| 2026-05-03 23:07 | 26.65666 | -79.79864 | 16028 ft | 300 kts | 203° |
| 2026-05-03 23:07 | 26.63697 | -79.80680 | 16027 ft | 300 kts | 203° |
| 2026-05-03 23:07 | 26.61755 | -79.81492 | 16026 ft | 300 kts | 203° |
| 2026-05-03 23:08 | 26.59797 | -79.82323 | 16031 ft | 300 kts | 204° |
| 2026-05-03 23:08 | 26.57872 | -79.83151 | 16029 ft | 300 kts | 204° |
| 2026-05-03 23:08 | 26.55928 | -79.83998 | 16031 ft | 300 kts | 204° |
| 2026-05-03 23:08 | 26.53902 | -79.84601 | 16035 ft | 303 kts | 186° |
| 2026-05-03 23:09 | 26.51793 | -79.84282 | 16035 ft | 310 kts | 162° |
| 2026-05-03 23:09 | 26.49974 | -79.83009 | 16039 ft | 317 kts | 137° |
| 2026-05-03 23:09 | 26.48762 | -79.80942 | 16035 ft | 324 kts | 111° |
| 2026-05-03 23:09 | 26.48446 | -79.78449 | 16031 ft | 327 kts | 84° |
| 2026-05-03 23:10 | 26.49123 | -79.76033 | 16026 ft | 327 kts | 57° |
| 2026-05-03 23:10 | 26.50623 | -79.74202 | 16026 ft | 324 kts | 31° |
| 2026-05-03 23:10 | 26.52629 | -79.73097 | 16028 ft | 322 kts | 19° |
| 2026-05-03 23:10 | 26.54719 | -79.72162 | 16026 ft | 322 kts | 18° |
| 2026-05-03 23:11 | 26.56790 | -79.71269 | 16027 ft | 322 kts | 18° |
| 2026-05-03 23:11 | 26.58890 | -79.70373 | 16027 ft | 322 kts | 18° |
| 2026-05-03 23:11 | 26.60999 | -79.69470 | 16030 ft | 323 kts | 18° |
| 2026-05-03 23:11 | 26.63098 | -79.68564 | 16026 ft | 323 kts | 18° |
| 2026-05-03 23:12 | 26.65171 | -79.67662 | 16026 ft | 323 kts | 19° |
| 2026-05-03 23:12 | 26.67269 | -79.66755 | 16026 ft | 322 kts | 16° |
| 2026-05-03 23:12 | 26.69448 | -79.66380 | 16031 ft | 314 kts | 352° |
| 2026-05-03 23:12 | 26.71516 | -79.67025 | 16027 ft | 306 kts | 327° |
| 2026-05-03 23:13 | 26.73106 | -79.68493 | 16029 ft | 299 kts | 304° |
| 2026-05-03 23:13 | 26.74047 | -79.70539 | 16031 ft | 294 kts | 282° |
| 2026-05-03 23:13 | 26.74197 | -79.72806 | 16027 ft | 292 kts | 261° |
| 2026-05-03 23:13 | 26.73564 | -79.74918 | 16028 ft | 292 kts | 239° |
| 2026-05-03 23:14 | 26.72228 | -79.76633 | 16030 ft | 295 kts | 218° |
| 2026-05-03 23:14 | 26.70411 | -79.77735 | 16028 ft | 298 kts | 206° |
| 2026-05-03 23:14 | 26.68511 | -79.78620 | 16029 ft | 299 kts | 204° |
| 2026-05-03 23:14 | 26.66563 | -79.79461 | 16028 ft | 300 kts | 203° |
| 2026-05-03 23:15 | 26.64607 | -79.80285 | 16028 ft | 300 kts | 203° |
| 2026-05-03 23:15 | 26.62651 | -79.81111 | 16026 ft | 300 kts | 203° |
| 2026-05-03 23:15 | 26.60715 | -79.81934 | 16017 ft | 300 kts | 204° |
| 2026-05-03 23:15 | 26.58764 | -79.82771 | 15769 ft | 298 kts | 204° |
| 2026-05-03 23:16 | 26.56829 | -79.83610 | 15512 ft | 297 kts | 204° |
| 2026-05-03 23:16 | 26.54914 | -79.84405 | 15267 ft | 297 kts | 197° |
| 2026-05-03 23:16 | 26.52845 | -79.84542 | 15074 ft | 302 kts | 173° |
| 2026-05-03 23:16 | 26.50874 | -79.83698 | 15027 ft | 308 kts | 148° |
| 2026-05-03 23:17 | 26.49353 | -79.81980 | 15036 ft | 316 kts | 123° |
| 2026-05-03 23:17 | 26.48623 | -79.79703 | 15032 ft | 320 kts | 96° |
| 2026-05-03 23:17 | 26.48843 | -79.77236 | 15031 ft | 322 kts | 69° |
| 2026-05-03 23:17 | 26.50001 | -79.75122 | 15028 ft | 320 kts | 43° |
| 2026-05-03 23:18 | 26.51830 | -79.73764 | 15030 ft | 316 kts | 20° |
| 2026-05-03 23:18 | 26.53871 | -79.72822 | 15026 ft | 317 kts | 19° |
| 2026-05-03 23:18 | 26.55931 | -79.71923 | 15028 ft | 317 kts | 18° |
| 2026-05-03 23:18 | 26.57994 | -79.71044 | 15026 ft | 317 kts | 18° |
| 2026-05-03 23:19 | 26.60048 | -79.70168 | 15026 ft | 317 kts | 18° |
| 2026-05-03 23:19 | 26.62090 | -79.69288 | 15029 ft | 317 kts | 19° |
| 2026-05-03 23:19 | 26.64173 | -79.68384 | 15029 ft | 317 kts | 19° |
| 2026-05-03 23:19 | 26.66215 | -79.67493 | 14843 ft | 317 kts | 19° |
| 2026-05-03 23:20 | 26.68298 | -79.66710 | 14598 ft | 311 kts | 6° |
| 2026-05-03 23:20 | 26.70418 | -79.66791 | 14347 ft | 302 kts | 341° |
| 2026-05-03 23:20 | 26.72260 | -79.67813 | 14112 ft | 293 kts | 317° |
| 2026-05-03 23:20 | 26.73534 | -79.69515 | 14015 ft | 287 kts | 295° |
| 2026-05-03 23:21 | 26.74122 | -79.71638 | 14026 ft | 285 kts | 273° |
| 2026-05-03 23:21 | 26.73936 | -79.73839 | 14027 ft | 284 kts | 252° |
| 2026-05-03 23:21 | 26.73025 | -79.75764 | 14028 ft | 286 kts | 231° |
| 2026-05-03 23:21 | 26.71491 | -79.77180 | 14028 ft | 289 kts | 209° |
| 2026-05-03 23:22 | 26.67764 | -79.78953 | 14028 ft | 291 kts | 203° |
| 2026-05-03 23:22 | 26.65860 | -79.79758 | 14029 ft | 291 kts | 203° |
| 2026-05-03 23:22 | 26.63970 | -79.80550 | 14028 ft | 291 kts | 203° |
| 2026-05-03 23:23 | 26.62073 | -79.81349 | 14027 ft | 291 kts | 203° |
| 2026-05-03 23:23 | 26.60194 | -79.82151 | 14028 ft | 292 kts | 203° |
| 2026-05-03 23:23 | 26.58297 | -79.82971 | 14031 ft | 292 kts | 204° |
| 2026-05-03 23:23 | 26.56393 | -79.83800 | 14034 ft | 292 kts | 204° |
| 2026-05-03 23:24 | 26.54472 | -79.84517 | 14032 ft | 294 kts | 191° |
| 2026-05-03 23:24 | 26.52444 | -79.84436 | 14036 ft | 300 kts | 167° |
| 2026-05-03 23:24 | 26.50576 | -79.83387 | 14037 ft | 306 kts | 142° |
| 2026-05-03 23:24 | 26.49254 | -79.81493 | 14035 ft | 312 kts | 115° |
| 2026-05-03 23:25 | 26.48796 | -79.79160 | 14031 ft | 315 kts | 89° |
| 2026-05-03 23:25 | 26.49301 | -79.76786 | 14028 ft | 315 kts | 62° |
| 2026-05-03 23:25 | 26.50666 | -79.74904 | 14027 ft | 313 kts | 35° |
| 2026-05-03 23:25 | 26.52584 | -79.73773 | 14030 ft | 311 kts | 20° |
| 2026-05-03 23:26 | 26.54596 | -79.72869 | 14028 ft | 312 kts | 19° |
| 2026-05-03 23:26 | 26.56608 | -79.71997 | 14027 ft | 312 kts | 18° |
| 2026-05-03 23:26 | 26.58640 | -79.71128 | 14028 ft | 312 kts | 18° |
| 2026-05-03 23:26 | 26.60648 | -79.70269 | 14028 ft | 312 kts | 18° |
| 2026-05-03 23:27 | 26.62673 | -79.69397 | 14028 ft | 312 kts | 19° |
| 2026-05-03 23:27 | 26.64698 | -79.68519 | 14028 ft | 312 kts | 19° |
| 2026-05-03 23:27 | 26.66728 | -79.67634 | 14027 ft | 312 kts | 19° |
| 2026-05-03 23:27 | 26.68799 | -79.66976 | 14023 ft | 307 kts | 1° |
| 2026-05-03 23:28 | 26.70883 | -79.67269 | 14026 ft | 300 kts | 335° |
| 2026-05-03 23:28 | 26.72627 | -79.68487 | 13874 ft | 293 kts | 311° |
| 2026-05-03 23:28 | 26.73726 | -79.70351 | 13621 ft | 285 kts | 288° |
| 2026-05-03 23:28 | 26.74061 | -79.72488 | 13376 ft | 282 kts | 266° |
| 2026-05-03 23:29 | 26.73630 | -79.74610 | 13131 ft | 280 kts | 244° |
| 2026-05-03 23:29 | 26.72490 | -79.76368 | 13011 ft | 281 kts | 222° |
| 2026-05-03 23:29 | 26.70821 | -79.77525 | 13023 ft | 286 kts | 206° |
| 2026-05-03 23:29 | 26.69008 | -79.78390 | 13029 ft | 287 kts | 204° |
| 2026-05-03 23:30 | 26.67132 | -79.79210 | 13024 ft | 288 kts | 203° |
| 2026-05-03 23:30 | 26.65271 | -79.79999 | 13023 ft | 288 kts | 202° |
| 2026-05-03 23:30 | 26.63394 | -79.80793 | 13026 ft | 288 kts | 203° |
| 2026-05-03 23:30 | 26.61535 | -79.81583 | 13034 ft | 288 kts | 203° |
| 2026-05-03 23:31 | 26.59662 | -79.82386 | 13023 ft | 288 kts | 203° |
| 2026-05-03 23:31 | 26.58414 | -79.82924 | 12966 ft | 289 kts | 203° |
| 2026-05-03 23:31 | 26.56548 | -79.83736 | 12704 ft | 286 kts | 203° |
| 2026-05-03 23:31 | 26.54028 | -79.84572 | 12368 ft | 287 kts | 185° |
| 2026-05-03 23:32 | 26.52707 | -79.84459 | 12207 ft | 290 kts | 168° |
| 2026-05-03 23:32 | 26.50884 | -79.83500 | 11953 ft | 294 kts | 143° |
| 2026-05-03 23:32 | 26.49584 | -79.81726 | 11701 ft | 298 kts | 116° |
| 2026-05-03 23:32 | 26.49095 | -79.79497 | 11450 ft | 300 kts | 90° |
| 2026-05-03 23:33 | 26.49518 | -79.77229 | 11193 ft | 300 kts | 63° |
| 2026-05-03 23:33 | 26.50769 | -79.75406 | 11035 ft | 297 kts | 37° |
| 2026-05-03 23:33 | 26.52566 | -79.74301 | 11025 ft | 296 kts | 21° |
| 2026-05-03 23:33 | 26.54475 | -79.73432 | 11026 ft | 296 kts | 19° |
| 2026-05-03 23:34 | 26.56405 | -79.72596 | 11027 ft | 297 kts | 19° |
| 2026-05-03 23:34 | 26.58338 | -79.71771 | 11028 ft | 297 kts | 19° |
| 2026-05-03 23:34 | 26.60248 | -79.70953 | 11028 ft | 297 kts | 19° |
| 2026-05-03 23:34 | 26.62183 | -79.70119 | 11028 ft | 297 kts | 19° |
| 2026-05-03 23:35 | 26.64117 | -79.69278 | 11028 ft | 297 kts | 19° |
| 2026-05-03 23:35 | 26.66020 | -79.68448 | 11028 ft | 297 kts | 19° |
| 2026-05-03 23:35 | 26.67961 | -79.67633 | 11026 ft | 296 kts | 13° |
| 2026-05-03 23:35 | 26.69987 | -79.67466 | 11027 ft | 290 kts | 348° |
| 2026-05-03 23:36 | 26.71824 | -79.68242 | 11029 ft | 285 kts | 323° |
| 2026-05-03 23:36 | 26.73204 | -79.69809 | 11028 ft | 280 kts | 299° |
| 2026-05-03 23:36 | 26.73871 | -79.71806 | 11025 ft | 277 kts | 276° |
| 2026-05-03 23:36 | 26.73767 | -79.73939 | 11027 ft | 276 kts | 253° |
| 2026-05-03 23:37 | 26.72900 | -79.75847 | 11028 ft | 277 kts | 230° |
| 2026-05-03 23:37 | 26.71430 | -79.77197 | 11028 ft | 279 kts | 208° |
| 2026-05-03 23:37 | 26.69647 | -79.78089 | 11029 ft | 281 kts | 204° |
| 2026-05-03 23:37 | 26.67820 | -79.78902 | 11028 ft | 281 kts | 202° |
| 2026-05-03 23:38 | 26.65989 | -79.79683 | 11028 ft | 282 kts | 202° |
| 2026-05-03 23:38 | 26.64166 | -79.80453 | 11028 ft | 282 kts | 202° |
| 2026-05-03 23:38 | 26.62330 | -79.81236 | 11027 ft | 282 kts | 202° |
| 2026-05-03 23:38 | 26.60496 | -79.82025 | 11028 ft | 282 kts | 203° |
| 2026-05-03 23:39 | 26.58666 | -79.82817 | 11031 ft | 281 kts | 203° |
| 2026-05-03 23:39 | 26.56832 | -79.83614 | 11035 ft | 281 kts | 203° |
| 2026-05-03 23:39 | 26.55029 | -79.84401 | 10858 ft | 281 kts | 203° |
| 2026-05-03 23:39 | 26.53215 | -79.85228 | 10601 ft | 279 kts | 204° |
| 2026-05-03 23:40 | 26.51426 | -79.86070 | 10350 ft | 278 kts | 205° |
| 2026-05-03 23:40 | 26.49638 | -79.86922 | 10099 ft | 278 kts | 205° |
| 2026-05-03 23:40 | 26.47869 | -79.87766 | 9917 ft | 277 kts | 204° |
| 2026-05-03 23:40 | 26.46091 | -79.88609 | 9801 ft | 278 kts | 204° |
| 2026-05-03 23:41 | 26.44311 | -79.89449 | 9669 ft | 278 kts | 204° |
| 2026-05-03 23:41 | 26.42527 | -79.90288 | 9543 ft | 277 kts | 204° |
| 2026-05-03 23:41 | 26.40762 | -79.91115 | 9291 ft | 280 kts | 204° |
| 2026-05-03 23:41 | 26.38938 | -79.91976 | 8755 ft | 285 kts | 205° |
| 2026-05-03 23:42 | 26.37211 | -79.92979 | 8582 ft | 275 kts | 211° |
| 2026-05-03 23:42 | 26.35530 | -79.94066 | 8028 ft | 281 kts | 211° |
| 2026-05-03 23:42 | 26.33857 | -79.95140 | 7773 ft | 278 kts | 211° |
| 2026-05-03 23:42 | 26.32157 | -79.96229 | 7718 ft | 282 kts | 211° |
| 2026-05-03 23:43 | 26.30451 | -79.97322 | 7632 ft | 282 kts | 211° |
| 2026-05-03 23:43 | 26.28769 | -79.98399 | 7544 ft | 282 kts | 211° |
| 2026-05-03 23:43 | 26.27061 | -79.99496 | 7457 ft | 281 kts | 211° |
| 2026-05-03 23:43 | 26.25360 | -80.00588 | 7364 ft | 281 kts | 211° |
| 2026-05-03 23:44 | 26.23682 | -80.01670 | 7282 ft | 280 kts | 211° |
| 2026-05-03 23:44 | 26.21994 | -80.02759 | 7184 ft | 280 kts | 211° |
| 2026-05-03 23:44 | 26.20377 | -80.03962 | 7098 ft | 279 kts | 220° |
| 2026-05-03 23:44 | 26.18965 | -80.05453 | 7015 ft | 278 kts | 229° |
| 2026-05-03 23:45 | 26.17805 | -80.07175 | 6925 ft | 277 kts | 239° |
| 2026-05-03 23:45 | 26.16933 | -80.09059 | 6829 ft | 277 kts | 248° |
| 2026-05-03 23:45 | 26.16295 | -80.11086 | 6739 ft | 277 kts | 252° |
| 2026-05-03 23:45 | 26.15683 | -80.13119 | 6661 ft | 276 kts | 251° |
| 2026-05-03 23:46 | 26.15205 | -80.15165 | 6564 ft | 276 kts | 260° |
| 2026-05-03 23:46 | 26.15018 | -80.17306 | 6466 ft | 276 kts | 269° |
| 2026-05-03 23:46 | 26.15033 | -80.19442 | 6398 ft | 276 kts | 270° |
| 2026-05-03 23:46 | 26.15048 | -80.21551 | 6310 ft | 275 kts | 270° |
| 2026-05-03 23:47 | 26.15058 | -80.23689 | 6234 ft | 275 kts | 270° |
| 2026-05-03 23:47 | 26.15068 | -80.25816 | 6103 ft | 275 kts | 270° |
| 2026-05-03 23:47 | 26.15090 | -80.27920 | 6004 ft | 273 kts | 270° |
| 2026-05-03 23:47 | 26.15105 | -80.30045 | 6017 ft | 274 kts | 270° |
| 2026-05-03 23:48 | 26.15103 | -80.32173 | 6018 ft | 274 kts | 269° |
| 2026-05-03 23:48 | 26.15084 | -80.34301 | 6017 ft | 274 kts | 269° |
| 2026-05-03 23:48 | 26.15053 | -80.36431 | 6018 ft | 274 kts | 269° |
| 2026-05-03 23:48 | 26.15015 | -80.38529 | 6018 ft | 274 kts | 269° |
| 2026-05-03 23:49 | 26.14972 | -80.40656 | 6018 ft | 274 kts | 268° |
| 2026-05-03 23:49 | 26.14925 | -80.42785 | 6018 ft | 274 kts | 268° |
| 2026-05-03 23:49 | 26.14878 | -80.44919 | 6019 ft | 274 kts | 268° |
| 2026-05-03 23:49 | 26.14831 | -80.47067 | 5611 ft | 283 kts | 268° |
| 2026-05-03 23:50 | 26.14782 | -80.49260 | 4488 ft | 291 kts | 268° |
| 2026-05-03 23:50 | 26.14581 | -80.50768 | 3769 ft | 293 kts | 251° |
| 2026-05-03 23:50 | 26.13085 | -80.53066 | 3184 ft | 270 kts | 215° |
| 2026-05-03 23:50 | 26.11374 | -80.53775 | 3009 ft | 257 kts | 183° |
| 2026-05-03 23:51 | 26.09634 | -80.53443 | 3017 ft | 259 kts | 154° |
| 2026-05-03 23:51 | 26.08290 | -80.52163 | 3016 ft | 256 kts | 120° |
| 2026-05-03 23:51 | 26.07819 | -80.50291 | 3022 ft | 254 kts | 91° |
| 2026-05-03 23:51 | 26.07812 | -80.48320 | 3024 ft | 254 kts | 88° |
| 2026-05-03 23:52 | 26.07824 | -80.46374 | 3031 ft | 255 kts | 89° |
| 2026-05-03 23:52 | 26.07821 | -80.44399 | 3031 ft | 255 kts | 89° |
| 2026-05-03 23:52 | 26.07812 | -80.42413 | 3037 ft | 255 kts | 89° |
| 2026-05-03 23:52 | 26.07805 | -80.40458 | 3040 ft | 255 kts | 89° |
| 2026-05-03 23:53 | 26.07797 | -80.38484 | 3049 ft | 258 kts | 89° |
| 2026-05-03 23:53 | 26.07789 | -80.36516 | 3038 ft | 253 kts | 89° |
| 2026-05-03 23:53 | 26.07781 | -80.34623 | 3024 ft | 232 kts | 89° |
| 2026-05-03 23:53 | 26.07773 | -80.32903 | 2841 ft | 213 kts | 89° |
| 2026-05-03 23:54 | 26.07766 | -80.31305 | 2648 ft | 203 kts | 89° |
| 2026-05-03 23:54 | 26.07759 | -80.29748 | 2365 ft | 196 kts | 89° |
| 2026-05-03 23:54 | 26.07753 | -80.28296 | 2128 ft | 183 kts | 89° |
| 2026-05-03 23:54 | 26.07746 | -80.26886 | 1856 ft | 180 kts | 89° |
| 2026-05-03 23:55 | 26.07739 | -80.25503 | 1618 ft | 176 kts | 89° |
| 2026-05-03 23:55 | 26.07732 | -80.24232 | 1394 ft | 156 kts | 89° |
| 2026-05-03 23:55 | 26.07727 | -80.23089 | 1189 ft | 141 kts | 89° |
| 2026-05-03 23:55 | 26.07721 | -80.22017 | 1006 ft | 135 kts | 88° |
| 2026-05-03 23:56 | 26.07718 | -80.20971 | 833 ft | 134 kts | 89° |
| 2026-05-03 23:56 | 26.07711 | -80.19944 | 657 ft | 134 kts | 89° |
| 2026-05-03 23:56 | 26.07707 | -80.18909 | 480 ft | 133 kts | 89° |
| 2026-05-03 23:56 | 26.07701 | -80.17888 | 307 ft | 132 kts | 89° |
| 2026-05-03 23:57 | 26.07701 | -80.16866 | 135 ft | 132 kts | 89° |
| 2026-05-03 23:57 | 26.07693 | -80.15856 | 19 ft | 122 kts | 90° |
| 2026-05-03 23:57 | 26.07688 | -80.15249 | 16 ft | 35 kts | 91° |
| 2026-05-03 23:57 | 26.07673 | -80.15009 | 16 ft | 30 kts | 109° |
| 2026-05-03 23:58 | 26.07607 | -80.14888 | 17 ft | 3 kts | 125° |
| 2026-05-03 23:58 | 26.07606 | -80.14887 | 17 ft | 0 kts | 125° |
| 2026-05-04 00:00 | 26.07598 | -80.14873 | 17 ft | 4 kts | 125° |
| 2026-05-04 00:01 | 26.07592 | -80.14865 | 17 ft | 0 kts | 125° |
| 2026-05-04 00:01 | 26.07581 | -80.14847 | 17 ft | 5 kts | 125° |
| 2026-05-04 00:01 | 26.07553 | -80.14822 | 18 ft | 0 kts | 144° |
| 2026-05-04 00:01 | 26.07544 | -80.14825 | 16 ft | 3 kts | 198° |
| 2026-05-04 00:02 | 26.07523 | -80.14853 | 16 ft | 6 kts | 236° |
| 2026-05-04 00:02 | 26.07495 | -80.14889 | 17 ft | 7 kts | 228° |
| 2026-05-04 00:02 | 26.07462 | -80.14928 | 16 ft | 7 kts | 224° |
| 2026-05-04 00:02 | 26.07418 | -80.14973 | 16 ft | 10 kts | 224° |
| 2026-05-04 00:03 | 26.07370 | -80.15027 | 16 ft | 10 kts | 225° |
| 2026-05-04 00:03 | 26.07318 | -80.15086 | 16 ft | 11 kts | 225° |
| 2026-05-04 00:03 | 26.07251 | -80.15129 | 16 ft | 12 kts | 183° |
| 2026-05-04 00:03 | 26.07169 | -80.15128 | 16 ft | 12 kts | 180° |
| 2026-05-04 00:04 | 26.07088 | -80.15128 | 16 ft | 11 kts | 180° |
| 2026-05-04 00:04 | 26.07010 | -80.15128 | 16 ft | 11 kts | 180° |
| 2026-05-04 00:04 | 26.06936 | -80.15124 | 16 ft | 10 kts | 162° |
| 2026-05-04 00:04 | 26.06911 | -80.15061 | 16 ft | 10 kts | 90° |
| 2026-05-04 00:05 | 26.06911 | -80.14989 | 16 ft | 9 kts | 90° |
| 2026-05-04 00:05 | 26.06911 | -80.14922 | 16 ft | 8 kts | 90° |
| 2026-05-04 00:05 | 26.06911 | -80.14862 | 16 ft | 7 kts | 90° |
| 2026-05-04 00:05 | 26.06909 | -80.14809 | 16 ft | 6 kts | 100° |
| 2026-05-04 00:06 | 26.06879 | -80.14762 | 16 ft | 10 kts | 135° |
| 2026-05-04 00:06 | 26.06824 | -80.14702 | 16 ft | 11 kts | 135° |
| 2026-05-04 00:06 | 26.06773 | -80.14640 | 16 ft | 10 kts | 117° |
| 2026-05-04 00:06 | 26.06763 | -80.14570 | 16 ft | 9 kts | 91° |
| 2026-05-04 00:07 | 26.06766 | -80.14507 | 16 ft | 8 kts | 85° |
| 2026-05-04 00:07 | 26.06771 | -80.14453 | 16 ft | 6 kts | 85° |
| 2026-05-04 00:07 | 26.06773 | -80.14407 | 16 ft | 6 kts | 88° |
| 2026-05-04 00:07 | 26.06774 | -80.14368 | 16 ft | 5 kts | 89° |
| 2026-05-04 00:08 | 26.06774 | -80.14335 | 16 ft | 4 kts | 89° |
| 2026-05-04 00:08 | 26.06776 | -80.14302 | 16 ft | 5 kts | 80° |
| 2026-05-04 00:08 | 26.06795 | -80.14259 | 16 ft | 7 kts | 56° |
| 2026-05-04 00:08 | 26.06822 | -80.14220 | 16 ft | 5 kts | 42° |
| 2026-05-04 00:09 | 26.06854 | -80.14211 | 16 ft | 4 kts | 2° |
| 2026-05-04 00:09 | 26.06875 | -80.14211 | 16 ft | 2 kts | 359° |
| 2026-05-04 00:09 | 26.06879 | -80.14211 | 16 ft | 0 kts | 359° |